Time;durP1;ratioP1;P1;durP2;ratioP2;P2;SDS_P1;SDS_P2;PMS_P1;PMS_P2;Temp;Humidity;BMP_temperature;BMP_pressure;BME280_temperature;BME280_humidity;BME280_pressure;Samples;Min_cycle;Max_cycle;Signal;HPM_P1;HPM_P2
2021/11/23 00:01:42;;;;;;;1.20;1.10;;;3.00;98.00;;;;;;5011863;28;20533;-64
2021/11/23 00:04:09;;;;;;;2.37;2.20;;;3.00;98.00;;;;;;5012064;28;20465;-64
2021/11/23 00:06:37;;;;;;;1.20;1.20;;;3.00;98.00;;;;;;5011933;28;20451;-64
2021/11/23 00:09:09;;;;;;;1.20;1.00;;;2.90;98.00;;;;;;5012122;28;20984;-63
2021/11/23 00:11:36;;;;;;;1.30;1.30;;;2.90;98.00;;;;;;5012001;28;20459;-64
2021/11/23 00:14:04;;;;;;;1.73;1.17;;;3.00;98.00;;;;;;5012024;28;20561;-64
2021/11/23 00:16:31;;;;;;;1.20;1.10;;;3.00;98.00;;;;;;5010795;28;20460;-64
2021/11/23 00:18:58;;;;;;;1.53;1.47;;;2.90;98.00;;;;;;5012129;28;20508;-63
2021/11/23 00:21:25;;;;;;;1.30;1.13;;;2.90;98.00;;;;;;5011857;28;20463;-63
2021/11/23 00:23:52;;;;;;;1.30;1.30;;;2.90;98.00;;;;;;5012054;28;20506;-64
2021/11/23 00:26:22;;;;;;;1.20;1.03;;;2.80;98.00;;;;;;5010755;28;20464;-64
2021/11/23 00:28:49;;;;;;;1.20;1.00;;;2.60;98.00;;;;;;5011923;28;20491;-64
2021/11/23 00:31:16;;;;;;;1.20;1.20;;;2.60;98.00;;;;;;5011746;28;20513;-63
2021/11/23 00:33:43;;;;;;;1.33;1.27;;;2.60;98.00;;;;;;5012044;28;20459;-64
2021/11/23 00:36:12;;;;;;;1.20;1.10;;;2.70;98.00;;;;;;5010642;28;20463;-64
2021/11/23 00:38:42;;;;;;;1.20;1.10;;;2.60;98.00;;;;;;5011856;28;20517;-64
2021/11/23 00:41:09;;;;;;;1.20;1.00;;;2.70;98.00;;;;;;5011650;28;20463;-63
2021/11/23 00:43:38;;;;;;;1.47;1.30;;;2.60;98.00;;;;;;5011668;28;20968;-64
2021/11/23 00:46:05;;;;;;;1.20;1.00;;;2.60;98.00;;;;;;5011483;28;20462;-63
2021/11/23 00:48:33;;;;;;;1.20;1.00;;;2.60;98.00;;;;;;5011643;28;20498;-64
2021/11/23 00:51:01;;;;;;;1.20;1.00;;;2.60;98.00;;;;;;5009906;28;20463;-64
2021/11/23 00:53:28;;;;;;;1.20;1.03;;;2.80;98.00;;;;;;5011462;28;20544;-64
2021/11/23 00:55:56;;;;;;;1.20;1.00;;;2.80;98.00;;;;;;5011500;28;20454;-63
2021/11/23 00:58:23;;;;;;;1.20;1.07;;;2.70;98.00;;;;;;5011654;28;20478;-63
2021/11/23 01:00:51;;;;;;;2.40;1.50;;;2.70;98.00;;;;;;5010227;28;20467;-63
2021/11/23 01:03:19;;;;;;;1.20;1.00;;;2.80;98.00;;;;;;5011286;28;20458;-64
2021/11/23 01:05:47;;;;;;;1.30;1.20;;;2.90;98.00;;;;;;5011743;28;20459;-63
2021/11/23 01:08:14;;;;;;;1.83;1.57;;;2.90;98.00;;;;;;5011291;28;20574;-64
2021/11/23 01:10:42;;;;;;;2.20;1.93;;;2.80;98.00;;;;;;5013795;28;20470;-64
2021/11/23 01:13:10;;;;;;;1.30;1.10;;;2.80;98.00;;;;;;5014858;28;20862;-64
2021/11/23 01:15:41;;;;;;;1.20;1.00;;;2.70;98.00;;;;;;5013831;28;20520;-64
2021/11/23 01:18:10;;;;;;;1.20;1.10;;;2.70;98.00;;;;;;5014925;28;20513;-63
2021/11/23 01:20:38;;;;;;;1.20;1.00;;;2.60;98.00;;;;;;5014763;28;20489;-63
2021/11/23 01:23:05;;;;;;;1.20;1.07;;;2.60;98.00;;;;;;5014773;28;20960;-63
2021/11/23 01:25:32;;;;;;;3.10;1.43;;;2.60;98.00;;;;;;5013600;28;20810;-63
2021/11/23 01:27:59;;;;;;;1.47;1.13;;;2.60;98.00;;;;;;5014340;28;20544;-64
2021/11/23 01:30:27;;;;;;;2.07;1.30;;;2.60;98.00;;;;;;5014627;28;20454;-63
2021/11/23 01:32:54;;;;;;;1.20;0.97;;;2.60;98.00;;;;;;5014561;28;20952;-63
2021/11/23 01:35:22;;;;;;;1.20;1.13;;;2.80;98.00;;;;;;5014389;28;20529;-63
2021/11/23 01:37:50;;;;;;;2.47;1.47;;;2.70;98.00;;;;;;5014480;28;20546;-63
2021/11/23 01:40:19;;;;;;;1.20;1.00;;;2.60;98.00;;;;;;5014422;28;20462;-63
2021/11/23 01:42:48;;;;;;;1.30;1.10;;;2.60;98.00;;;;;;5013212;28;20517;-65
2021/11/23 01:45:16;;;;;;;1.20;1.00;;;2.60;98.00;;;;;;5014269;28;20974;-64
2021/11/23 01:47:43;;;;;;;1.73;1.30;;;2.50;98.00;;;;;;5014115;28;20505;-64
2021/11/23 01:50:12;;;;;;;1.20;1.10;;;2.50;98.00;;;;;;5013226;28;20470;-65
2021/11/23 01:52:41;;;;;;;1.20;1.00;;;2.50;98.00;;;;;;5014264;28;20513;-63
2021/11/23 01:55:10;;;;;;;2.40;1.77;;;2.40;98.00;;;;;;5013445;28;20462;-63
2021/11/23 01:57:37;;;;;;;1.20;1.00;;;2.40;98.00;;;;;;5014508;28;20461;-63
2021/11/23 02:00:06;;;;;;;2.50;2.13;;;2.40;98.00;;;;;;5014128;28;20475;-64
2021/11/23 02:02:34;;;;;;;1.20;1.07;;;2.30;98.00;;;;;;5014171;28;21094;-64
2021/11/23 02:05:01;;;;;;;1.40;1.30;;;2.30;98.00;;;;;;5013037;28;20462;-64
2021/11/23 02:07:31;;;;;;;1.20;1.00;;;2.30;98.00;;;;;;5012751;28;20518;-64
2021/11/23 02:09:59;;;;;;;1.30;1.00;;;2.20;98.00;;;;;;5013922;28;20462;-63
2021/11/23 02:12:30;;;;;;;1.20;1.00;;;2.30;98.00;;;;;;5013837;28;20521;-65
2021/11/23 02:14:58;;;;;;;1.20;1.00;;;2.20;98.00;;;;;;5012057;28;20486;-64
2021/11/23 02:17:25;;;;;;;1.20;1.00;;;2.20;98.00;;;;;;5013678;28;20524;-63
2021/11/23 02:19:54;;;;;;;1.20;1.00;;;2.20;98.00;;;;;;5013798;28;20459;-63
2021/11/23 02:22:21;;;;;;;1.20;1.10;;;2.20;98.00;;;;;;5012546;28;20461;-64
2021/11/23 02:24:48;;;;;;;1.30;1.20;;;2.10;98.00;;;;;;5013513;28;20525;-64
2021/11/23 02:27:15;;;;;;;1.37;1.20;;;2.10;98.00;;;;;;5013682;28;20474;-63
2021/11/23 02:29:43;;;;;;;1.20;1.00;;;2.00;98.00;;;;;;5013428;28;20996;-63
2021/11/23 02:32:10;;;;;;;1.83;1.23;;;1.90;98.00;;;;;;5013214;28;20463;-64
2021/11/23 02:34:38;;;;;;;1.20;1.00;;;1.90;98.00;;;;;;5013289;28;20594;-64
2021/11/23 02:37:07;;;;;;;3.73;1.40;;;1.90;98.00;;;;;;5012030;28;20458;-63
2021/11/23 02:39:36;;;;;;;1.47;1.30;;;1.90;98.00;;;;;;5013109;28;20512;-63
2021/11/23 02:42:04;;;;;;;1.20;1.00;;;1.90;98.00;;;;;;5013090;28;20517;-63
2021/11/23 02:44:31;;;;;;;1.40;1.17;;;1.90;98.00;;;;;;5012061;28;20470;-64
2021/11/23 02:47:01;;;;;;;1.20;1.00;;;1.90;98.00;;;;;;5013059;28;20466;-63
2021/11/23 02:49:29;;;;;;;1.20;1.10;;;1.80;98.00;;;;;;5013000;28;20494;-63
2021/11/23 02:51:56;;;;;;;1.13;1.00;;;1.70;98.00;;;;;;5013000;28;20462;-63
2021/11/23 02:54:24;;;;;;;1.20;1.00;;;1.70;98.00;;;;;;5013274;28;20459;-63
2021/11/23 02:56:51;;;;;;;1.20;1.00;;;1.60;98.00;;;;;;5013021;28;20612;-63
2021/11/23 02:59:19;;;;;;;1.30;1.00;;;1.50;98.00;;;;;;5012926;28;20975;-63
2021/11/23 03:01:46;;;;;;;1.70;1.10;;;1.60;98.00;;;;;;5012898;28;20509;-64
2021/11/23 03:04:18;;;;;;;1.20;0.90;;;1.50;98.00;;;;;;5013071;28;20513;-63
2021/11/23 03:06:45;;;;;;;1.20;1.00;;;1.30;98.00;;;;;;5012827;28;20487;-63
2021/11/23 03:09:13;;;;;;;1.27;1.23;;;1.30;98.00;;;;;;5012777;28;20494;-63
2021/11/23 03:11:51;;;;;;;1.30;1.10;;;1.30;98.00;;;;;;5012850;28;20512;-64
2021/11/23 03:14:19;;;;;;;2.53;1.60;;;1.30;98.00;;;;;;5013008;28;20474;-63
2021/11/23 03:16:47;;;;;;;1.20;0.97;;;1.30;98.00;;;;;;5011772;28;20926;-63
2021/11/23 03:19:14;;;;;;;1.20;1.00;;;1.30;98.00;;;;;;4995305;28;20463;-62
2021/11/23 03:21:41;;;;;;;1.40;1.40;;;1.30;98.00;;;;;;5012714;28;20467;-64
2021/11/23 03:24:08;;;;;;;1.40;1.10;;;1.30;98.00;;;;;;5012483;28;20466;-63
2021/11/23 03:26:35;;;;;;;1.20;1.00;;;1.30;98.00;;;;;;5012572;28;20470;-63
2021/11/23 03:29:04;;;;;;;1.20;1.10;;;1.40;98.00;;;;;;5011079;28;20498;-63
2021/11/23 03:31:31;;;;;;;3.77;1.30;;;1.20;98.00;;;;;;5012309;28;20478;-63
2021/11/23 03:33:58;;;;;;;1.20;1.00;;;1.20;98.00;;;;;;5012139;28;20466;-62
2021/11/23 03:36:25;;;;;;;1.20;1.03;;;1.20;98.00;;;;;;5011137;28;20463;-63
2021/11/23 03:38:55;;;;;;;1.20;1.20;;;1.20;98.00;;;;;;5012302;28;20462;-63
2021/11/23 03:41:22;;;;;;;1.20;1.13;;;1.10;98.00;;;;;;5012237;28;21004;-63
2021/11/23 03:43:51;;;;;;;1.20;1.00;;;1.10;98.00;;;;;;5010744;28;20464;-62
2021/11/23 03:46:19;;;;;;;1.20;0.90;;;1.00;98.00;;;;;;5011940;28;20462;-64
2021/11/23 03:48:46;;;;;;;1.20;0.97;;;1.00;98.00;;;;;;5012082;28;20490;-63
2021/11/23 03:51:15;;;;;;;1.20;1.00;;;1.00;98.00;;;;;;5012061;28;20470;-64
2021/11/23 03:53:42;;;;;;;1.20;1.00;;;1.10;98.00;;;;;;5010736;28;20481;-64
2021/11/23 03:56:10;;;;;;;1.20;1.10;;;1.00;98.00;;;;;;5010984;28;20461;-63
2021/11/23 03:58:37;;;;;;;1.17;0.90;;;1.00;98.00;;;;;;5011921;28;21081;-64
2021/11/23 04:01:04;;;;;;;1.20;1.10;;;1.00;98.00;;;;;;5011915;28;20529;-63
2021/11/23 04:03:33;;;;;;;2.03;1.20;;;0.90;98.00;;;;;;5011957;28;20458;-64
2021/11/23 04:06:01;;;;;;;1.20;0.97;;;0.90;98.00;;;;;;5011964;28;20458;-63
2021/11/23 04:08:28;;;;;;;1.20;1.00;;;0.90;98.00;;;;;;5011854;28;20520;-63
2021/11/23 04:10:58;;;;;;;1.17;1.00;;;0.90;98.00;;;;;;5011994;28;20505;-63
2021/11/23 04:13:26;;;;;;;1.27;1.23;;;0.90;98.00;;;;;;5011914;28;20530;-63
2021/11/23 04:15:53;;;;;;;1.30;1.10;;;0.80;98.00;;;;;;5012076;28;20857;-64
2021/11/23 04:18:20;;;;;;;1.73;1.57;;;0.80;98.00;;;;;;5012053;28;20525;-63
2021/11/23 04:20:48;;;;;;;1.20;1.10;;;0.70;98.00;;;;;;5011833;28;20462;-63
2021/11/23 04:23:16;;;;;;;1.20;1.00;;;0.90;98.00;;;;;;5011849;28;20462;-63
2021/11/23 04:25:44;;;;;;;1.40;1.10;;;0.90;98.00;;;;;;5010898;28;20485;-64
2021/11/23 04:28:14;;;;;;;1.20;1.00;;;1.00;98.00;;;;;;5011921;28;20475;-63
2021/11/23 04:30:43;;;;;;;1.40;1.27;;;0.90;98.00;;;;;;5010863;28;20465;-64
2021/11/23 04:33:13;;;;;;;1.20;1.00;;;1.00;98.00;;;;;;5011798;28;21003;-64
2021/11/23 04:35:41;;;;;;;1.30;1.10;;;0.90;98.00;;;;;;5011125;28;21013;-64
2021/11/23 04:38:11;;;;;;;1.20;1.00;;;0.90;98.00;;;;;;5011050;28;20834;-64
2021/11/23 04:40:39;;;;;;;1.20;1.07;;;0.80;98.00;;;;;;5011257;28;20937;-63
2021/11/23 04:43:07;;;;;;;1.23;1.10;;;0.60;98.00;;;;;;5011737;28;20474;-64
2021/11/23 04:45:36;;;;;;;1.20;1.00;;;0.70;98.00;;;;;;5013356;28;20454;-63
2021/11/23 04:48:03;;;;;;;1.20;1.00;;;0.70;98.00;;;;;;5015464;28;20465;-64
2021/11/23 04:50:31;;;;;;;1.30;1.10;;;0.70;98.00;;;;;;5015189;28;20556;-64
2021/11/23 04:52:58;;;;;;;1.20;1.00;;;0.70;98.00;;;;;;5015029;28;20473;-63
2021/11/23 04:55:26;;;;;;;1.20;1.00;;;0.80;98.00;;;;;;5015427;28;20463;-63
2021/11/23 04:57:53;;;;;;;1.30;1.10;;;0.80;98.00;;;;;;5015047;28;20524;-64
2021/11/23 05:00:21;;;;;;;1.20;1.10;;;0.70;98.00;;;;;;5015027;28;20524;-63
2021/11/23 05:02:48;;;;;;;1.20;1.00;;;0.70;98.00;;;;;;5015193;28;20472;-63
2021/11/23 05:05:16;;;;;;;1.30;1.20;;;0.80;98.00;;;;;;5015027;28;20703;-64
2021/11/23 05:07:44;;;;;;;2.40;1.27;;;0.80;98.00;;;;;;5014947;28;20906;-62
2021/11/23 05:10:14;;;;;;;1.20;1.17;;;0.90;98.00;;;;;;5014837;28;20544;-63
2021/11/23 05:12:42;;;;;;;1.20;1.00;;;0.90;98.00;;;;;;5013756;28;20462;-64
2021/11/23 05:15:10;;;;;;;1.50;1.47;;;1.00;98.00;;;;;;5014791;28;20469;-63
2021/11/23 05:17:37;;;;;;;1.60;1.10;;;1.00;98.00;;;;;;5014670;28;20466;-63
2021/11/23 05:20:06;;;;;;;1.30;1.10;;;0.80;98.00;;;;;;5015047;28;20466;-63
2021/11/23 05:22:35;;;;;;;1.20;1.00;;;0.80;98.00;;;;;;5014972;28;20468;-63
2021/11/23 05:25:02;;;;;;;1.30;1.00;;;0.80;98.00;;;;;;5014438;28;20498;-63
2021/11/23 05:27:31;;;;;;;1.20;1.00;;;0.90;98.00;;;;;;5014603;28;20455;-63
2021/11/23 05:30:00;;;;;;;1.20;1.20;;;0.90;98.00;;;;;;5014658;28;20493;-64
2021/11/23 05:32:30;;;;;;;1.23;1.03;;;0.90;98.00;;;;;;5014639;28;20889;-63
2021/11/23 05:34:57;;;;;;;1.20;1.03;;;0.80;98.00;;;;;;5014549;28;20463;-63
2021/11/23 05:37:24;;;;;;;1.47;1.13;;;0.80;98.00;;;;;;5014394;28;20462;-63
2021/11/23 05:39:51;;;;;;;1.20;1.00;;;0.70;98.00;;;;;;5014568;28;20458;-64
2021/11/23 05:42:18;;;;;;;2.13;1.37;;;0.70;98.00;;;;;;5014456;28;20833;-64
2021/11/23 05:44:45;;;;;;;2.80;1.47;;;0.50;98.00;;;;;;5014667;28;20466;-63
2021/11/23 05:47:13;;;;;;;1.20;1.10;;;0.40;98.00;;;;;;5014630;28;20458;-63
2021/11/23 05:49:41;;;;;;;3.60;1.67;;;0.40;98.00;;;;;;5014162;28;20494;-64
2021/11/23 05:52:09;;;;;;;1.20;1.00;;;0.40;98.00;;;;;;5014003;28;20458;-63
2021/11/23 05:54:37;;;;;;;1.20;1.00;;;0.40;98.00;;;;;;5014442;28;20463;-63
2021/11/23 05:57:05;;;;;;;1.30;1.10;;;0.30;98.00;;;;;;5014052;28;20936;-63
2021/11/23 05:59:32;;;;;;;1.20;1.00;;;0.30;98.00;;;;;;5012904;28;20463;-64
2021/11/23 06:01:59;;;;;;;1.20;1.10;;;0.20;98.00;;;;;;5014128;28;20524;-63
2021/11/23 06:04:27;;;;;;;1.50;1.33;;;0.00;98.00;;;;;;5013461;28;21002;-63
2021/11/23 06:06:54;;;;;;;1.20;1.00;;;-0.20;98.00;;;;;;5014041;28;20867;-64
2021/11/23 06:09:22;;;;;;;1.20;1.00;;;-0.10;98.00;;;;;;5014062;28;20489;-63
2021/11/23 06:11:50;;;;;;;1.20;1.00;;;-0.30;98.00;;;;;;5013895;28;20465;-63
2021/11/23 06:14:17;;;;;;;1.20;1.00;;;-0.40;98.00;;;;;;5013667;28;20516;-63
2021/11/23 06:16:46;;;;;;;1.97;1.23;;;-0.20;98.00;;;;;;5013890;28;20865;-63
2021/11/23 06:19:13;;;;;;;1.20;1.13;;;-0.10;98.00;;;;;;5012516;28;20461;-63
2021/11/23 06:21:42;;;;;;;1.53;1.40;;;-0.10;98.00;;;;;;5013356;28;20458;-62
2021/11/23 06:24:10;;;;;;;1.10;1.00;;;0.00;98.00;;;;;;5013681;28;20470;-62
2021/11/23 06:26:37;;;;;;;1.50;1.37;;;0.10;98.00;;;;;;5013568;28;20463;-62
2021/11/23 06:29:05;;;;;;;1.20;1.20;;;0.10;98.00;;;;;;5012235;28;20880;-63
2021/11/23 06:31:32;;;;;;;1.70;1.60;;;0.10;98.00;;;;;;5013390;28;20521;-63
2021/11/23 06:34:00;;;;;;;2.07;1.17;;;0.00;98.00;;;;;;5013561;28;20524;-63
2021/11/23 06:36:28;;;;;;;1.10;1.00;;;0.10;98.00;;;;;;5013287;28;20549;-63
2021/11/23 06:38:56;;;;;;;1.20;1.00;;;0.20;98.00;;;;;;5012864;28;20458;-64
2021/11/23 06:41:23;;;;;;;1.20;1.00;;;0.20;98.00;;;;;;5012043;28;21022;-63
2021/11/23 06:43:50;;;;;;;1.10;1.00;;;0.30;98.00;;;;;;5011999;28;20458;-64
2021/11/23 06:46:17;;;;;;;1.20;1.10;;;0.20;98.00;;;;;;5012885;28;20457;-64
2021/11/23 06:48:44;;;;;;;3.80;1.63;;;0.20;98.00;;;;;;5013040;28;20515;-64
2021/11/23 06:51:12;;;;;;;1.20;1.10;;;0.20;98.00;;;;;;5013016;28;20497;-63
2021/11/23 06:53:40;;;;;;;1.10;1.00;;;0.20;98.00;;;;;;5012970;28;20465;-64
2021/11/23 06:56:08;;;;;;;1.57;1.50;;;0.10;98.00;;;;;;5012960;28;20466;-63
2021/11/23 06:58:36;;;;;;;1.70;1.10;;;0.00;98.00;;;;;;5012915;28;20463;-63
2021/11/23 07:01:03;;;;;;;1.10;0.90;;;-0.10;98.00;;;;;;5011660;28;20475;-63
2021/11/23 07:03:30;;;;;;;2.10;1.43;;;-0.10;98.00;;;;;;5012538;28;20524;-64
2021/11/23 07:05:57;;;;;;;1.10;0.90;;;-0.10;98.00;;;;;;5012660;28;20464;-63
2021/11/23 07:08:24;;;;;;;1.30;1.20;;;0.00;98.00;;;;;;5012372;28;20517;-64
2021/11/23 07:10:52;;;;;;;1.30;1.30;;;0.10;98.00;;;;;;5012730;28;20555;-64
2021/11/23 07:13:21;;;;;;;1.77;1.10;;;0.10;98.00;;;;;;5012729;28;20894;-63
2021/11/23 07:15:49;;;;;;;1.60;1.50;;;0.10;98.00;;;;;;5012444;28;20469;-63
2021/11/23 07:18:16;;;;;;;1.13;1.10;;;0.10;98.00;;;;;;5013011;28;20504;-63
2021/11/23 07:20:47;;;;;;;1.10;1.00;;;0.00;98.00;;;;;;5012788;28;20461;-63
2021/11/23 07:23:14;;;;;;;2.40;2.20;;;-0.10;98.00;;;;;;5012659;28;20991;-64
2021/11/23 07:25:43;;;;;;;1.10;1.00;;;-0.20;98.00;;;;;;5012738;28;20820;-63
2021/11/23 07:28:10;;;;;;;1.20;1.10;;;-0.30;98.00;;;;;;5010196;28;20290;-62
2021/11/23 07:30:39;;;;;;;1.23;1.20;;;-0.30;98.00;;;;;;5012315;28;20999;-63
2021/11/23 07:33:07;;;;;;;1.20;1.10;;;-0.20;98.00;;;;;;5012547;28;21131;-63
2021/11/23 07:35:34;;;;;;;1.30;1.10;;;-0.10;98.00;;;;;;5011842;28;20470;-64
2021/11/23 07:38:04;;;;;;;1.20;1.07;;;-0.10;98.00;;;;;;5011199;28;20458;-62
2021/11/23 07:40:32;;;;;;;1.17;1.10;;;-0.10;98.00;;;;;;5012198;28;20466;-63
2021/11/23 07:42:59;;;;;;;1.83;1.50;;;-0.20;98.00;;;;;;5011989;28;20462;-63
2021/11/23 07:45:26;;;;;;;1.20;1.10;;;-0.20;98.00;;;;;;5012134;28;20457;-61
2021/11/23 07:47:56;;;;;;;1.38;1.13;;;-0.20;98.00;;;;;;5012042;28;20458;-62
2021/11/23 07:50:23;;;;;;;1.20;1.10;;;-0.10;98.00;;;;;;5012017;28;20572;-64
2021/11/23 07:52:51;;;;;;;1.63;1.10;;;-0.10;98.00;;;;;;5010516;28;20457;-64
2021/11/23 07:55:18;;;;;;;1.97;1.20;;;0.00;98.00;;;;;;5011997;28;20462;-63
2021/11/23 07:57:47;;;;;;;1.20;1.10;;;0.20;98.00;;;;;;5011692;28;20465;-64
2021/11/23 08:00:15;;;;;;;1.55;1.23;;;0.20;98.00;;;;;;5011741;28;20208;-63
2021/11/23 08:02:42;;;;;;;1.30;1.20;;;0.30;98.00;;;;;;5011910;28;20264;-64
2021/11/23 08:05:11;;;;;;;1.50;1.10;;;0.30;98.00;;;;;;5011944;28;20515;-63
2021/11/23 08:07:39;;;;;;;1.30;1.20;;;0.40;98.00;;;;;;5011462;28;20458;-63
2021/11/23 08:10:06;;;;;;;2.40;1.63;;;0.40;98.00;;;;;;5012054;28;20493;-63
2021/11/23 08:12:34;;;;;;;1.20;1.10;;;0.50;98.00;;;;;;5011768;28;20468;-62
2021/11/23 08:15:01;;;;;;;1.20;1.00;;;0.50;98.00;;;;;;5011968;28;20469;-64
2021/11/23 08:17:29;;;;;;;1.37;1.20;;;0.50;98.00;;;;;;5011791;28;20467;-65
2021/11/23 08:19:57;;;;;;;4.17;1.40;;;0.50;98.00;;;;;;5013568;28;20487;-64
2021/11/23 08:22:26;;;;;;;1.13;1.00;;;0.50;98.00;;;;;;5016140;28;20809;-63
2021/11/23 08:24:55;;;;;;;1.30;1.10;;;0.60;98.00;;;;;;5015855;28;20459;-63
2021/11/23 08:27:22;;;;;;;3.33;1.43;;;0.60;98.00;;;;;;4998560;28;20920;-63
2021/11/23 08:29:49;;;;;;;1.30;1.20;;;0.60;98.00;;;;;;5012322;28;20464;-63
2021/11/23 08:32:17;;;;;;;2.10;1.30;;;0.60;98.00;;;;;;5012068;28;21026;-64
2021/11/23 08:34:46;;;;;;;7.43;3.30;;;0.70;98.00;;;;;;5013382;28;20459;-65
2021/11/23 08:37:13;;;;;;;1.20;1.20;;;0.70;98.00;;;;;;5013446;28;20472;-65
2021/11/23 08:39:42;;;;;;;1.67;1.30;;;0.70;98.00;;;;;;4995922;28;20470;-64
2021/11/23 08:42:09;;;;;;;1.93;1.40;;;0.80;98.00;;;;;;5012770;28;21149;-63
2021/11/23 08:44:36;;;;;;;1.97;1.40;;;0.80;98.00;;;;;;5013069;28;20520;-65
2021/11/23 08:47:04;;;;;;;2.63;1.40;;;0.90;98.00;;;;;;5012726;28;20459;-64
2021/11/23 08:49:31;;;;;;;1.20;1.00;;;0.90;98.00;;;;;;5010845;28;20563;-63
2021/11/23 08:51:58;;;;;;;1.47;1.17;;;0.90;98.00;;;;;;5012899;28;20495;-64
2021/11/23 08:54:25;;;;;;;1.20;1.10;;;0.90;98.00;;;;;;5012554;28;20549;-64
2021/11/23 08:57:00;;;;;;;4.43;2.17;;;1.00;98.00;;;;;;5012485;28;20458;-65
2021/11/23 08:59:27;;;;;;;1.60;1.50;;;1.00;98.00;;;;;;5012643;28;20949;-64
2021/11/23 09:01:54;;;;;;;1.57;1.50;;;1.10;98.00;;;;;;5011128;28;20470;-64
2021/11/23 09:04:22;;;;;;;1.30;1.30;;;1.10;98.00;;;;;;5011136;28;20463;-64
2021/11/23 09:06:49;;;;;;;1.40;1.30;;;1.10;98.00;;;;;;5011163;28;20519;-65
2021/11/23 09:09:17;;;;;;;1.40;1.30;;;1.30;98.00;;;;;;5011233;28;20558;-65
2021/11/23 09:11:44;;;;;;;2.07;1.20;;;1.30;98.00;;;;;;5010708;28;20497;-64
2021/11/23 09:14:13;;;;;;;1.30;1.30;;;1.30;98.00;;;;;;5010987;28;20459;-64
2021/11/23 09:16:40;;;;;;;1.20;1.10;;;1.40;98.00;;;;;;5011044;28;20520;-64
2021/11/23 09:19:07;;;;;;;1.20;1.00;;;1.50;98.00;;;;;;5011074;28;20530;-63
2021/11/23 09:21:44;;;;;;;1.20;1.00;;;1.70;98.00;;;;;;5011176;28;20484;-64
2021/11/23 09:24:11;;;;;;;1.20;1.00;;;1.70;98.00;;;;;;5009590;28;20469;-63
2021/11/23 09:26:38;;;;;;;1.20;1.00;;;1.70;98.00;;;;;;5010758;28;20465;-63
2021/11/23 09:29:06;;;;;;;1.37;1.20;;;1.70;98.00;;;;;;5010922;28;20528;-64
2021/11/23 09:31:34;;;;;;;1.73;1.30;;;1.80;98.00;;;;;;5010436;28;20496;-64
2021/11/23 09:34:01;;;;;;;2.23;1.67;;;1.80;98.00;;;;;;5010676;28;21089;-64
2021/11/23 09:36:28;;;;;;;1.73;1.33;;;1.80;98.00;;;;;;5010835;28;20896;-64
2021/11/23 09:38:55;;;;;;;1.40;1.30;;;1.90;98.00;;;;;;5010634;28;20448;-62
2021/11/23 09:41:23;;;;;;;3.90;1.67;;;2.00;98.00;;;;;;5010636;28;20466;-63
2021/11/23 09:43:50;;;;;;;3.77;2.00;;;2.00;98.00;;;;;;5010359;28;20955;-63
2021/11/23 09:46:17;;;;;;;1.20;1.10;;;2.10;98.00;;;;;;5010484;28;20471;-63
2021/11/23 09:48:48;;;;;;;1.30;1.23;;;2.10;98.00;;;;;;5009942;28;20463;-64
2021/11/23 09:51:17;;;;;;;2.40;1.63;;;2.10;98.00;;;;;;5007679;28;20498;-64
2021/11/23 09:53:45;;;;;;;1.20;1.10;;;2.10;98.00;;;;;;5009855;28;20525;-62
2021/11/23 09:56:13;;;;;;;1.50;1.20;;;2.20;98.00;;;;;;5010919;28;20478;-63
2021/11/23 09:58:41;;;;;;;1.80;1.70;;;2.20;98.00;;;;;;5009168;28;20470;-64
2021/11/23 10:01:11;;;;;;;1.53;1.50;;;2.30;98.00;;;;;;4966734;28;1295879;-62
2021/11/23 10:03:39;;;;;;;1.60;1.53;;;2.30;98.00;;;;;;4999976;28;20238;-63
2021/11/23 10:06:12;;;;;;;1.20;1.00;;;2.40;98.00;;;;;;5011643;28;20458;-63
2021/11/23 10:08:41;;;;;;;1.20;1.10;;;2.50;98.00;;;;;;5011092;28;20473;-63
2021/11/23 10:11:09;;;;;;;1.20;1.00;;;2.70;98.00;;;;;;5011243;28;20486;-64
2021/11/23 10:13:42;;;;;;;1.60;1.20;;;2.80;98.00;;;;;;5011629;28;20528;-63
2021/11/23 10:16:10;;;;;;;1.20;1.13;;;2.90;98.00;;;;;;5011473;28;20459;-65
2021/11/23 10:18:40;;;;;;;1.17;1.10;;;2.90;98.00;;;;;;5010986;28;20556;-65
2021/11/23 10:21:12;;;;;;;1.10;1.00;;;3.00;98.00;;;;;;5009945;28;20469;-63
2021/11/23 10:23:41;;;;;;;1.20;1.10;;;3.10;98.00;;;;;;5003655;28;20466;-63
2021/11/23 10:26:13;;;;;;;1.20;1.00;;;3.30;98.00;;;;;;5010864;28;20454;-63
2021/11/23 10:28:43;;;;;;;1.20;1.00;;;3.40;98.00;;;;;;5010777;28;20477;-63
2021/11/23 10:31:12;;;;;;;1.27;1.27;;;3.60;98.00;;;;;;5010870;28;20537;-63
2021/11/23 10:33:41;;;;;;;1.73;1.10;;;3.80;98.00;;;;;;5010444;28;20475;-64
2021/11/23 10:36:12;;;;;;;1.20;1.00;;;3.80;98.00;;;;;;5012807;28;20467;-63
2021/11/23 10:38:40;;;;;;;1.20;1.00;;;3.90;98.00;;;;;;5013123;28;20463;-62
2021/11/23 10:41:10;;;;;;;1.20;1.10;;;4.10;98.00;;;;;;5013255;28;20456;-63
2021/11/23 10:43:39;;;;;;;1.30;1.20;;;4.30;98.00;;;;;;5012092;28;20463;-62
2021/11/23 10:46:14;;;;;;;1.47;1.20;;;4.40;98.00;;;;;;5012845;28;20518;-63
2021/11/23 10:48:41;;;;;;;1.30;1.10;;;4.60;98.00;;;;;;5013015;28;20475;-65
2021/11/23 10:51:12;;;;;;;1.20;1.00;;;4.70;98.00;;;;;;5012540;28;20487;-62
2021/11/23 10:53:42;;;;;;;1.40;1.30;;;4.90;98.00;;;;;;5012811;28;20518;-62
2021/11/23 10:56:13;;;;;;;2.17;1.10;;;5.00;98.00;;;;;;5012871;28;20491;-63
2021/11/23 10:58:41;;;;;;;1.30;1.10;;;5.30;98.00;;;;;;5012658;28;20530;-62
2021/11/23 11:01:13;;;;;;;1.80;1.30;;;5.50;98.00;;;;;;5012308;28;20499;-62
2021/11/23 11:03:41;;;;;;;1.20;1.00;;;5.60;98.00;;;;;;5011266;28;21018;-63
2021/11/23 11:06:13;;;;;;;1.67;1.23;;;5.70;98.00;;;;;;5012770;28;20981;-63
2021/11/23 11:08:44;;;;;;;1.67;1.63;;;5.80;98.00;;;;;;5011158;28;20510;-63
2021/11/23 11:11:16;;;;;;;2.30;1.20;;;6.00;98.00;;;;;;5010816;28;20487;-63
2021/11/23 11:13:48;;;;;;;1.90;1.73;;;6.20;98.00;;;;;;5010420;28;20460;-63
2021/11/23 11:16:20;;;;;;;2.13;1.33;;;6.20;98.00;;;;;;5010430;28;20464;-63
2021/11/23 11:19:11;;;;;;;5.93;1.73;;;6.50;98.00;;;;;;5010070;28;20455;-63
2021/11/23 11:21:41;;;;;;;1.30;1.17;;;6.70;98.00;;;;;;5010091;28;21025;-63
2021/11/23 11:24:30;;;;;;;1.30;1.13;;;6.90;98.00;;;;;;5009929;28;20466;-63
2021/11/23 11:27:11;;;;;;;1.37;1.33;;;7.00;98.00;;;;;;5010028;28;20949;-64
2021/11/23 11:29:39;;;;;;;1.20;1.10;;;7.00;98.00;;;;;;5010235;28;20459;-63
2021/11/23 11:32:06;;;;;;;1.20;1.00;;;7.20;98.00;;;;;;5009808;28;20499;-63
2021/11/23 11:34:37;;;;;;;1.30;1.20;;;7.20;98.00;;;;;;5009861;28;20522;-63
2021/11/23 11:37:17;;;;;;;1.67;1.30;;;7.20;98.00;;;;;;5010034;28;20455;-63
2021/11/23 11:39:58;;;;;;;1.97;1.80;;;7.30;98.00;;;;;;5009911;28;20444;-63
2021/11/23 11:42:51;;;;;;;1.20;1.00;;;7.50;98.00;;;;;;5001724;28;20489;-64
2021/11/23 11:45:22;;;;;;;1.20;1.07;;;7.60;98.00;;;;;;5009732;28;20461;-63
2021/11/23 11:47:51;;;;;;;1.30;1.20;;;7.90;98.00;;;;;;5009399;28;20465;-64
2021/11/23 11:50:21;;;;;;;1.30;1.23;;;8.00;98.00;;;;;;5005992;28;20530;-63
2021/11/23 11:53:11;;;;;;;1.30;1.10;;;8.20;98.00;;;;;;5009466;28;20569;-64
2021/11/23 11:55:51;;;;;;;1.20;1.00;;;8.30;98.00;;;;;;5009696;28;20936;-63
2021/11/23 11:58:45;;;;;;;1.20;1.00;;;8.40;98.00;;;;;;5008283;28;20849;-64
2021/11/23 12:01:36;;;;;;;1.20;1.10;;;8.60;98.00;;;;;;5009369;28;20501;-63
2021/11/23 12:04:11;;;;;;;1.20;1.10;;;8.60;97.80;;;;;;5009578;28;20553;-63
2021/11/23 12:07:07;;;;;;;1.90;1.10;;;8.60;97.80;;;;;;5009134;28;20466;-63
2021/11/23 12:09:39;;;;;;;1.30;1.20;;;9.00;98.00;;;;;;5009475;28;20469;-64
2021/11/23 12:12:42;;;;;;;1.30;1.20;;;9.30;97.80;;;;;;5009126;28;20494;-63
2021/11/23 12:15:39;;;;;;;1.20;1.00;;;9.60;97.10;;;;;;5009282;28;20474;-63
2021/11/23 12:18:31;;;;;;;1.20;1.00;;;9.90;95.60;;;;;;5008967;28;20483;-64
2021/11/23 12:21:04;;;;;;;1.50;1.30;;;10.30;95.00;;;;;;5003603;28;20537;-63
2021/11/23 12:23:37;;;;;;;1.40;1.20;;;10.70;93.20;;;;;;5009627;28;20950;-63
2021/11/23 12:26:11;;;;;;;1.20;1.10;;;10.90;90.40;;;;;;5009534;28;20547;-63
2021/11/23 12:28:38;;;;;;;2.13;1.83;;;11.10;90.30;;;;;;5009137;28;20463;-63
2021/11/23 12:31:08;;;;;;;1.20;1.10;;;11.10;89.30;;;;;;5009161;28;20463;-63
2021/11/23 12:33:52;;;;;;;1.53;1.40;;;11.30;89.70;;;;;;5007959;28;20977;-63
2021/11/23 12:36:23;;;;;;;2.50;1.67;;;11.50;88.90;;;;;;5009201;28;20462;-64
2021/11/23 12:38:52;;;;;;;1.50;1.23;;;11.60;87.50;;;;;;5009766;28;20481;-63
2021/11/23 12:41:23;;;;;;;1.20;1.10;;;11.60;87.50;;;;;;5009186;28;20502;-64
2021/11/23 12:43:50;;;;;;;1.20;1.17;;;11.80;86.90;;;;;;5009311;28;20459;-64
2021/11/23 12:46:21;;;;;;;1.93;1.23;;;11.90;87.30;;;;;;5009472;28;20513;-64
2021/11/23 12:48:51;;;;;;;1.70;1.40;;;12.00;85.80;;;;;;5009103;28;20809;-64
2021/11/23 12:51:24;;;;;;;1.80;1.10;;;12.10;86.50;;;;;;5006937;28;21019;-64
2021/11/23 12:53:55;;;;;;;1.20;1.00;;;12.10;85.70;;;;;;5008856;28;20466;-64
2021/11/23 12:56:42;;;;;;;1.20;1.10;;;12.10;85.70;;;;;;5008834;28;20459;-65
2021/11/23 12:59:27;;;;;;;1.20;1.00;;;12.00;85.60;;;;;;5001802;28;20946;-64
2021/11/23 13:01:59;;;;;;;2.10;1.30;;;12.00;85.30;;;;;;5010026;28;20554;-63
2021/11/23 13:04:38;;;;;;;1.70;1.50;;;12.00;86.00;;;;;;5011076;28;20457;-62
2021/11/23 13:07:07;;;;;;;2.47;1.50;;;11.90;84.60;;;;;;5014736;28;20459;-62